Time;durP1;ratioP1;P1;durP2;ratioP2;P2;SDS_P1;SDS_P2;PMS_P1;PMS_P2;Temp;Humidity;BMP_temperature;BMP_pressure;BME280_temperature;BME280_humidity;BME280_pressure;Samples;Min_cycle;Max_cycle;Signal;HPM_P1;HPM_P2
2022/08/06 00:02:00;;;;;;;1.20;1.10;;;14.50;99.90;;;;;;5012248;28;20433;-72
2022/08/06 00:04:26;;;;;;;1.40;1.30;;;14.50;99.90;;;;;;5012078;28;20497;-72
2022/08/06 00:06:51;;;;;;;1.40;1.10;;;14.50;99.90;;;;;;5012282;28;20168;-71
2022/08/06 00:09:17;;;;;;;6.00;1.33;;;14.40;99.90;;;;;;5012195;28;20325;-72
2022/08/06 00:11:43;;;;;;;2.37;1.20;;;14.40;99.90;;;;;;5011742;28;20657;-71
2022/08/06 00:14:09;;;;;;;2.63;1.20;;;14.30;99.90;;;;;;5012056;28;20539;-71
2022/08/06 00:16:35;;;;;;;3.27;1.40;;;14.30;99.90;;;;;;5011879;28;20176;-71
2022/08/06 00:19:00;;;;;;;3.23;1.40;;;14.30;99.90;;;;;;5012256;28;20400;-72
2022/08/06 00:21:26;;;;;;;3.57;1.30;;;14.30;99.90;;;;;;5011991;28;20263;-71
2022/08/06 00:23:51;;;;;;;2.13;1.40;;;14.20;99.90;;;;;;5010843;28;20183;-72
2022/08/06 00:26:17;;;;;;;1.30;1.20;;;14.20;99.90;;;;;;5011821;28;20168;-71
2022/08/06 00:28:43;;;;;;;1.70;1.20;;;14.10;99.90;;;;;;5012022;28;20202;-71
2022/08/06 00:31:08;;;;;;;1.20;1.10;;;14.10;99.90;;;;;;5011970;28;20191;-71
2022/08/06 00:33:34;;;;;;;2.17;1.30;;;14.10;99.90;;;;;;5012078;28;20267;-71
2022/08/06 00:36:00;;;;;;;1.30;1.00;;;14.10;99.90;;;;;;5011622;28;20175;-72
2022/08/06 00:38:26;;;;;;;1.70;1.37;;;14.00;99.90;;;;;;5011916;28;20403;-72
2022/08/06 00:40:53;;;;;;;1.50;1.10;;;14.00;99.90;;;;;;5010688;28;20199;-72
2022/08/06 00:43:19;;;;;;;1.23;1.10;;;14.00;99.90;;;;;;5010736;28;20174;-72
2022/08/06 00:45:44;;;;;;;5.23;2.20;;;13.90;99.90;;;;;;5011686;28;20407;-71
2022/08/06 00:48:10;;;;;;;2.37;1.30;;;13.90;99.90;;;;;;5011809;28;20447;-72
2022/08/06 00:50:36;;;;;;;1.40;1.10;;;13.90;99.90;;;;;;5011807;28;20209;-71
2022/08/06 00:53:03;;;;;;;3.57;1.23;;;13.90;99.90;;;;;;5011406;28;20563;-71
2022/08/06 00:55:30;;;;;;;1.93;1.70;;;13.90;99.90;;;;;;5011655;28;20207;-71
2022/08/06 00:57:55;;;;;;;4.87;2.30;;;13.80;99.90;;;;;;5011616;28;20889;-72
2022/08/06 01:00:21;;;;;;;1.70;1.33;;;13.80;99.90;;;;;;5010468;28;20490;-71
2022/08/06 01:02:46;;;;;;;1.80;1.50;;;13.80;99.90;;;;;;5011770;28;20175;-71
2022/08/06 01:05:12;;;;;;;2.33;1.23;;;13.80;99.90;;;;;;5011481;28;20164;-71
2022/08/06 01:07:38;;;;;;;4.13;1.30;;;13.70;99.90;;;;;;5011651;28;20168;-71
2022/08/06 01:10:04;;;;;;;1.50;1.20;;;13.70;99.90;;;;;;5010381;28;20269;-71
2022/08/06 01:12:29;;;;;;;1.60;1.37;;;13.70;99.90;;;;;;5011572;28;20239;-71
2022/08/06 01:14:55;;;;;;;1.83;1.50;;;13.60;99.90;;;;;;5011390;28;20407;-71
2022/08/06 01:17:34;;;;;;;3.20;1.67;;;13.70;99.90;;;;;;5011581;28;20168;-71
2022/08/06 01:20:02;;;;;;;7.43;1.30;;;13.70;99.90;;;;;;5011620;28;20186;-71
2022/08/06 01:23:05;;;;;;;1.50;1.40;;;13.70;99.90;;;;;;5011402;28;20445;-72
2022/08/06 01:25:46;;;;;;;1.93;1.57;;;13.60;99.90;;;;;;5014188;28;20943;-71
2022/08/06 01:28:34;;;;;;;2.23;1.37;;;13.60;99.90;;;;;;5013665;28;20450;-71
2022/08/06 01:31:08;;;;;;;2.47;1.70;;;13.60;99.90;;;;;;5013658;28;20447;-71
2022/08/06 01:33:58;;;;;;;2.67;1.50;;;13.50;99.90;;;;;;5014900;28;20488;-71
2022/08/06 01:36:36;;;;;;;1.70;1.40;;;13.50;99.90;;;;;;5014742;28;20435;-71
2022/08/06 01:39:02;;;;;;;2.00;1.40;;;13.50;99.90;;;;;;5014818;28;20417;-71
2022/08/06 01:41:43;;;;;;;3.00;1.60;;;13.40;99.90;;;;;;5014680;28;20423;-71
2022/08/06 01:44:20;;;;;;;1.63;1.50;;;13.40;99.90;;;;;;5014559;28;20591;-71
2022/08/06 01:46:53;;;;;;;1.37;1.23;;;13.40;99.90;;;;;;5014500;28;20820;-71
2022/08/06 01:49:27;;;;;;;2.93;1.50;;;13.40;99.90;;;;;;5014447;28;20458;-72
2022/08/06 01:51:55;;;;;;;1.50;1.37;;;13.40;99.90;;;;;;5013187;28;20482;-71
2022/08/06 01:54:22;;;;;;;8.33;1.30;;;13.30;99.90;;;;;;5014288;28;20415;-71
2022/08/06 01:56:53;;;;;;;2.97;1.30;;;13.30;99.90;;;;;;5014536;28;20402;-72
2022/08/06 01:59:23;;;;;;;2.00;1.50;;;13.30;99.90;;;;;;5014436;28;20418;-72
2022/08/06 02:01:54;;;;;;;1.60;1.50;;;13.30;99.90;;;;;;5014283;28;20431;-72
2022/08/06 02:04:23;;;;;;;2.60;1.60;;;13.30;99.90;;;;;;5013882;28;20426;-71
2022/08/06 02:06:53;;;;;;;5.77;1.40;;;13.30;99.90;;;;;;5014309;28;20501;-72
2022/08/06 02:09:20;;;;;;;3.67;1.37;;;13.30;99.90;;;;;;5014074;28;20458;-71
2022/08/06 02:11:54;;;;;;;1.50;1.17;;;13.30;99.90;;;;;;5014127;28;20427;-71
2022/08/06 02:14:22;;;;;;;2.30;1.23;;;13.20;99.90;;;;;;5012471;28;20516;-71
2022/08/06 02:16:49;;;;;;;5.33;1.60;;;13.20;99.90;;;;;;5012803;28;20418;-70
2022/08/06 02:19:18;;;;;;;3.17;1.70;;;13.20;99.90;;;;;;5013963;28;20411;-71
2022/08/06 02:21:46;;;;;;;4.10;1.80;;;13.10;99.90;;;;;;5013994;28;20435;-71
2022/08/06 02:24:12;;;;;;;1.47;1.03;;;13.10;99.90;;;;;;5013957;28;20490;-71
2022/08/06 02:26:41;;;;;;;3.07;1.50;;;13.10;99.90;;;;;;5013848;28;20407;-72
2022/08/06 02:29:09;;;;;;;1.60;1.37;;;13.10;99.90;;;;;;5013667;28;20900;-72
2022/08/06 02:31:35;;;;;;;2.93;1.50;;;13.00;99.90;;;;;;5013158;28;20431;-73
2022/08/06 02:34:01;;;;;;;1.30;1.20;;;13.00;99.90;;;;;;5013818;28;20466;-73
2022/08/06 02:36:33;;;;;;;2.50;1.53;;;12.90;99.90;;;;;;5013205;28;20180;-73
2022/08/06 02:39:08;;;;;;;2.40;1.77;;;12.90;99.90;;;;;;5012540;28;20172;-73
2022/08/06 02:41:43;;;;;;;2.30;1.43;;;12.90;99.90;;;;;;5013604;28;20433;-73
2022/08/06 02:44:19;;;;;;;3.97;1.70;;;12.90;99.90;;;;;;5013532;28;20418;-73
2022/08/06 02:46:59;;;;;;;1.27;1.10;;;12.90;99.90;;;;;;5012252;28;20417;-73
2022/08/06 02:49:27;;;;;;;1.87;1.30;;;12.80;99.90;;;;;;5012262;28;20505;-71
2022/08/06 02:52:32;;;;;;;2.53;1.37;;;12.80;99.90;;;;;;5013224;28;20455;-71
2022/08/06 02:55:07;;;;;;;2.03;1.83;;;12.80;99.90;;;;;;5011808;28;20419;-72
2022/08/06 02:57:38;;;;;;;2.37;1.60;;;12.80;99.90;;;;;;5012156;28;20446;-72
2022/08/06 03:00:08;;;;;;;2.33;1.93;;;12.80;99.90;;;;;;5013234;28;20415;-71
2022/08/06 03:02:36;;;;;;;3.30;1.87;;;12.80;99.90;;;;;;5013028;28;20430;-71
2022/08/06 03:05:05;;;;;;;3.30;1.97;;;12.70;99.90;;;;;;5011664;28;20415;-71
2022/08/06 03:07:32;;;;;;;19.93;2.23;;;12.70;99.90;;;;;;5013211;28;20465;-72
2022/08/06 03:10:00;;;;;;;4.17;1.33;;;12.80;99.90;;;;;;5011790;28;20497;-72
2022/08/06 03:12:26;;;;;;;1.67;1.17;;;12.70;99.90;;;;;;5012962;28;20473;-72
2022/08/06 03:14:54;;;;;;;3.30;1.57;;;12.70;99.90;;;;;;5012696;28;20834;-72
2022/08/06 03:17:21;;;;;;;3.70;1.43;;;12.60;99.90;;;;;;5012915;28;20411;-71
2022/08/06 03:19:47;;;;;;;3.33;1.40;;;12.60;99.90;;;;;;5013042;28;20419;-71
2022/08/06 03:22:16;;;;;;;2.57;1.70;;;12.60;99.90;;;;;;5012840;28;20431;-72
2022/08/06 03:24:43;;;;;;;3.00;1.80;;;12.60;99.90;;;;;;5012672;28;20461;-72
2022/08/06 03:27:10;;;;;;;1.50;1.33;;;12.50;99.90;;;;;;5012745;28;20415;-71
2022/08/06 03:29:37;;;;;;;3.70;2.03;;;12.50;99.90;;;;;;5012801;28;20529;-72
2022/08/06 03:32:03;;;;;;;9.63;1.80;;;12.50;99.90;;;;;;5012588;28;20422;-72
2022/08/06 03:34:30;;;;;;;2.03;1.70;;;12.50;99.90;;;;;;5012622;28;20414;-72
2022/08/06 03:36:57;;;;;;;1.50;1.30;;;12.50;99.90;;;;;;5012654;28;20414;-72
2022/08/06 03:39:25;;;;;;;3.83;1.50;;;12.40;99.90;;;;;;5012773;28;20408;-72
2022/08/06 03:41:52;;;;;;;1.83;1.73;;;12.40;99.90;;;;;;5011172;28;20445;-75
2022/08/06 03:44:18;;;;;;;3.73;1.97;;;12.40;99.90;;;;;;5012281;28;20411;-75
2022/08/06 03:46:51;;;;;;;1.90;1.63;;;12.40;99.90;;;;;;5011932;28;20473;-75
2022/08/06 03:49:25;;;;;;;5.50;1.90;;;12.40;99.90;;;;;;5012456;28;20490;-72
2022/08/06 03:51:53;;;;;;;5.40;1.83;;;12.30;99.90;;;;;;5012369;28;20455;-72
2022/08/06 03:54:25;;;;;;;2.40;1.67;;;12.30;99.90;;;;;;5012162;28;20403;-72
2022/08/06 03:56:54;;;;;;;1.83;1.60;;;12.30;99.90;;;;;;5012516;28;20403;-72
2022/08/06 03:59:23;;;;;;;2.27;1.77;;;12.30;99.90;;;;;;5011053;28;20514;-72
2022/08/06 04:01:49;;;;;;;4.50;2.30;;;12.30;99.90;;;;;;5012306;28;20431;-72
2022/08/06 04:04:17;;;;;;;2.70;1.27;;;12.30;99.90;;;;;;5012085;28;20419;-72
2022/08/06 04:06:44;;;;;;;2.23;1.93;;;12.30;99.90;;;;;;5012301;28;20549;-72
2022/08/06 04:09:10;;;;;;;10.90;2.00;;;12.30;99.90;;;;;;5012115;28;20459;-72
2022/08/06 04:11:36;;;;;;;8.63;1.70;;;12.30;99.90;;;;;;5012261;28;20427;-73
2022/08/06 04:14:04;;;;;;;2.30;1.60;;;12.30;99.90;;;;;;5012137;28;20972;-73
2022/08/06 04:16:31;;;;;;;3.03;1.60;;;12.30;99.90;;;;;;5010729;28;20415;-73
2022/08/06 04:18:57;;;;;;;2.70;1.90;;;12.30;99.90;;;;;;5012180;28;20487;-73
2022/08/06 04:21:24;;;;;;;3.17;2.40;;;12.30;99.90;;;;;;5012077;28;20462;-73
2022/08/06 04:23:51;;;;;;;3.57;2.23;;;12.30;99.90;;;;;;5010839;28;20421;-73
2022/08/06 04:26:22;;;;;;;9.23;1.83;;;12.30;99.90;;;;;;5011740;28;20407;-73
2022/08/06 04:28:51;;;;;;;2.40;1.70;;;12.40;99.90;;;;;;5010877;28;20462;-74
2022/08/06 04:31:19;;;;;;;4.50;2.13;;;12.40;99.90;;;;;;5012046;28;20411;-74
2022/08/06 04:33:45;;;;;;;1.50;1.40;;;12.40;99.90;;;;;;5012069;28;20411;-73
2022/08/06 04:36:12;;;;;;;2.10;1.83;;;12.40;99.90;;;;;;5010252;28;20438;-73
2022/08/06 04:38:38;;;;;;;1.83;1.37;;;12.40;99.90;;;;;;5012092;28;20952;-73
2022/08/06 04:41:04;;;;;;;1.60;1.50;;;12.40;99.90;;;;;;5011936;28;20424;-73
2022/08/06 04:43:30;;;;;;;1.70;1.57;;;12.50;99.90;;;;;;5011960;28;20439;-73
2022/08/06 04:45:56;;;;;;;3.77;1.63;;;12.40;99.90;;;;;;5011625;28;20403;-77
2022/08/06 04:48:24;;;;;;;4.50;2.27;;;12.50;99.90;;;;;;5011912;28;20447;-74
2022/08/06 04:50:49;;;;;;;2.77;2.23;;;12.50;99.90;;;;;;5011539;28;20419;-74
2022/08/06 04:53:17;;;;;;;2.33;1.50;;;12.60;99.90;;;;;;5011933;28;20449;-74
2022/08/06 04:55:44;;;;;;;1.90;1.70;;;12.60;99.90;;;;;;5011494;28;20172;-74
2022/08/06 04:58:11;;;;;;;6.10;2.20;;;12.60;99.90;;;;;;5012796;28;20550;-74
2022/08/06 05:00:40;;;;;;;1.67;1.57;;;12.60;99.90;;;;;;5014195;28;20824;-73
2022/08/06 05:03:06;;;;;;;5.67;1.77;;;12.70;99.90;;;;;;5015475;28;20407;-73
2022/08/06 05:05:44;;;;;;;1.87;1.63;;;12.70;99.90;;;;;;5015177;28;20403;-73
2022/08/06 05:08:11;;;;;;;1.60;1.47;;;12.80;99.90;;;;;;5015594;28;20164;-73
2022/08/06 05:10:47;;;;;;;3.03;1.80;;;12.80;99.90;;;;;;5015245;28;20793;-73
2022/08/06 05:13:15;;;;;;;1.40;1.30;;;12.90;99.90;;;;;;5015239;28;21070;-74
2022/08/06 05:15:45;;;;;;;2.10;1.70;;;12.90;99.90;;;;;;5013846;28;20779;-72
2022/08/06 05:18:20;;;;;;;2.53;2.33;;;13.00;99.90;;;;;;5014005;28;20418;-73
2022/08/06 05:20:51;;;;;;;5.67;2.30;;;13.10;99.90;;;;;;5015086;28;20928;-73
2022/08/06 05:23:26;;;;;;;3.10;2.20;;;13.20;99.90;;;;;;5015189;28;20395;-74
2022/08/06 05:25:52;;;;;;;2.57;2.10;;;13.30;99.90;;;;;;5014862;28;20939;-74
2022/08/06 05:28:18;;;;;;;7.27;3.10;;;13.30;99.90;;;;;;5014939;28;20447;-74
2022/08/06 05:30:53;;;;;;;6.30;2.90;;;13.40;99.90;;;;;;5014907;28;20733;-74
2022/08/06 05:33:32;;;;;;;5.03;3.80;;;13.50;99.90;;;;;;5015201;28;20399;-73
2022/08/06 05:35:59;;;;;;;5.90;3.23;;;13.70;99.90;;;;;;5014812;28;20399;-73
2022/08/06 05:38:28;;;;;;;2.87;2.60;;;13.80;99.90;;;;;;5014802;28;20498;-74
2022/08/06 05:40:55;;;;;;;5.80;3.03;;;13.90;99.90;;;;;;5014726;28;20530;-74
2022/08/06 05:43:22;;;;;;;5.90;3.47;;;14.10;99.90;;;;;;5014798;28;20896;-73
2022/08/06 05:46:01;;;;;;;3.77;2.40;;;14.40;99.90;;;;;;5014523;28;20411;-74
2022/08/06 05:48:31;;;;;;;2.93;2.67;;;14.70;99.90;;;;;;5014726;28;20439;-73
2022/08/06 05:51:02;;;;;;;3.00;2.70;;;15.00;99.90;;;;;;5014437;28;20490;-74
2022/08/06 05:53:35;;;;;;;2.87;2.57;;;15.40;99.90;;;;;;5014602;28;20395;-74
2022/08/06 05:56:17;;;;;;;2.67;2.10;;;15.80;99.90;;;;;;5013118;28;20776;-73
2022/08/06 05:58:51;;;;;;;3.40;2.10;;;16.40;99.90;;;;;;5013135;28;20407;-74
2022/08/06 06:01:17;;;;;;;4.50;1.80;;;16.90;99.90;;;;;;5014391;28;20455;-74
2022/08/06 06:03:44;;;;;;;3.90;2.57;;;17.50;99.90;;;;;;5014385;28;20474;-74
2022/08/06 06:06:11;;;;;;;2.43;2.23;;;18.00;99.90;;;;;;5012895;28;20800;-74
2022/08/06 06:08:37;;;;;;;3.50;2.10;;;18.60;99.90;;;;;;5014266;28;20467;-74
2022/08/06 06:11:05;;;;;;;2.83;1.70;;;19.20;99.90;;;;;;5013664;28;20431;-74
2022/08/06 06:13:31;;;;;;;2.33;1.57;;;19.70;99.90;;;;;;5014229;28;20407;-74
2022/08/06 06:16:34;;;;;;;2.27;1.63;;;20.20;99.90;;;;;;5014196;28;20913;-74
2022/08/06 06:19:27;;;;;;;2.90;1.33;;;20.80;99.90;;;;;;5014180;28;20409;-74
2022/08/06 06:22:08;;;;;;;3.30;2.10;;;21.40;99.90;;;;;;5013937;28;20455;-74
2022/08/06 06:24:48;;;;;;;1.97;1.40;;;21.90;99.90;;;;;;5013642;28;20429;-74
2022/08/06 06:27:28;;;;;;;3.87;1.30;;;22.40;99.90;;;;;;5013849;28;20498;-74
2022/08/06 06:30:07;;;;;;;1.50;1.10;;;22.80;99.90;;;;;;5013835;28;20483;-74
2022/08/06 06:32:32;;;;;;;1.60;1.30;;;23.20;99.90;;;;;;5012447;28;20435;-74
2022/08/06 06:35:07;;;;;;;4.33;1.60;;;23.70;99.90;;;;;;5013546;28;20421;-75
2022/08/06 06:38:00;;;;;;;5.03;1.53;;;24.30;99.90;;;;;;5013944;28;20172;-72
2022/08/06 06:40:53;;;;;;;2.70;1.70;;;24.80;97.70;;;;;;5013606;28;20399;-74
2022/08/06 06:43:22;;;;;;;2.33;1.80;;;25.50;94.60;;;;;;5013697;28;20407;-75
2022/08/06 06:46:06;;;;;;;7.67;1.70;;;26.00;90.90;;;;;;5013392;28;20410;-74
2022/08/06 06:48:41;;;;;;;3.90;1.80;;;26.50;86.70;;;;;;5013474;28;20588;-73
2022/08/06 06:51:16;;;;;;;2.93;1.60;;;26.70;82.20;;;;;;5013605;28;20439;-73
2022/08/06 06:53:45;;;;;;;2.20;1.87;;;27.20;79.90;;;;;;5012235;28;20407;-73
2022/08/06 06:56:13;;;;;;;2.53;1.80;;;27.60;76.90;;;;;;5013245;28;20774;-73
2022/08/06 06:58:44;;;;;;;3.03;2.00;;;28.20;74.90;;;;;;5013247;28;20426;-73
2022/08/06 07:01:11;;;;;;;4.40;1.60;;;28.70;71.40;;;;;;5013187;28;20419;-75
2022/08/06 07:03:39;;;;;;;2.47;1.83;;;29.10;68.90;;;;;;5013385;28;20406;-75
2022/08/06 07:06:08;;;;;;;3.07;2.07;;;29.60;64.60;;;;;;5013048;28;20437;-75
2022/08/06 07:08:37;;;;;;;3.30;1.60;;;29.80;62.20;;;;;;5013170;28;20451;-75
2022/08/06 07:11:05;;;;;;;1.83;1.70;;;30.20;59.60;;;;;;5013194;28;20902;-75
2022/08/06 07:13:32;;;;;;;2.90;1.70;;;30.60;58.20;;;;;;5013182;28;20490;-74
2022/08/06 07:15:59;;;;;;;1.80;1.70;;;30.90;56.00;;;;;;5013024;28;20399;-75
2022/08/06 07:18:26;;;;;;;3.67;1.73;;;31.10;55.80;;;;;;5013125;28;20415;-75
2022/08/06 07:20:52;;;;;;;3.90;2.40;;;31.70;54.90;;;;;;5012756;28;20849;-75
2022/08/06 07:23:20;;;;;;;5.53;1.83;;;32.00;53.30;;;;;;5012724;28;20404;-75
2022/08/06 07:25:48;;;;;;;3.30;2.80;;;32.60;51.50;;;;;;5012867;28;20413;-75
2022/08/06 07:28:15;;;;;;;2.10;1.50;;;32.80;50.20;;;;;;5011754;28;20450;-75
2022/08/06 07:30:42;;;;;;;3.20;1.60;;;33.20;49.60;;;;;;5012907;28;20423;-75
2022/08/06 07:33:09;;;;;;;9.63;1.73;;;33.40;48.40;;;;;;5012485;28;20402;-75
2022/08/06 07:35:39;;;;;;;2.20;1.60;;;33.60;48.40;;;;;;5012610;28;20392;-72
2022/08/06 07:38:07;;;;;;;1.57;1.23;;;33.60;47.80;;;;;;5012966;28;20403;-73
2022/08/06 07:40:39;;;;;;;2.37;1.73;;;33.80;47.20;;;;;;5012777;28;21031;-73
2022/08/06 07:43:10;;;;;;;1.77;1.67;;;34.20;46.80;;;;;;5013042;28;20407;-73
2022/08/06 07:45:37;;;;;;;3.27;2.10;;;34.30;46.50;;;;;;5012618;28;20377;-73
2022/08/06 07:48:07;;;;;;;2.73;2.07;;;34.60;45.70;;;;;;5012747;28;20404;-73
2022/08/06 07:50:33;;;;;;;3.13;1.83;;;34.80;45.20;;;;;;5012567;28;20423;-73
2022/08/06 07:52:59;;;;;;;1.77;1.43;;;35.30;44.70;;;;;;5012806;28;20787;-73
2022/08/06 07:55:26;;;;;;;2.90;1.47;;;35.80;43.90;;;;;;5012279;28;20569;-73
2022/08/06 07:57:54;;;;;;;2.53;1.70;;;36.20;42.50;;;;;;5012526;28;20413;-73
2022/08/06 08:00:20;;;;;;;1.67;1.50;;;36.70;41.70;;;;;;5012470;28;20407;-74
2022/08/06 08:06:17;;;;;;;2.83;2.00;;;36.80;40.70;;;;;;5012523;28;20384;-73
2022/08/06 08:08:18;;;;;;;2.47;1.50;;;37.30;39.90;;;;;;5012640;28;20451;-73
2022/08/06 08:10:44;;;;;;;2.17;1.47;;;37.70;39.50;;;;;;5012440;28;20795;-73
2022/08/06 08:13:10;;;;;;;4.80;1.43;;;38.30;38.70;;;;;;5011216;28;20172;-73
2022/08/06 08:15:37;;;;;;;1.50;1.30;;;38.40;36.70;;;;;;5012099;28;20469;-73
2022/08/06 08:18:03;;;;;;;1.73;1.27;;;37.30;36.60;;;;;;5012485;28;20802;-73
2022/08/06 08:20:30;;;;;;;2.40;1.83;;;35.90;38.20;;;;;;5012397;28;20465;-73
2022/08/06 08:22:56;;;;;;;2.27;1.50;;;35.20;38.40;;;;;;5012350;28;20653;-73
2022/08/06 08:25:21;;;;;;;3.33;1.50;;;34.70;39.50;;;;;;5011861;28;20411;-73
2022/08/06 08:27:47;;;;;;;2.00;1.70;;;34.90;41.10;;;;;;5012349;28;20211;-73
2022/08/06 08:30:12;;;;;;;3.73;2.00;;;35.50;40.00;;;;;;5012148;28;20207;-73
2022/08/06 08:32:38;;;;;;;1.53;1.43;;;35.30;39.70;;;;;;5012523;28;20248;-73
2022/08/06 08:35:04;;;;;;;1.67;1.30;;;35.70;39.70;;;;;;5015959;28;20214;-73
2022/08/06 08:37:29;;;;;;;2.03;1.53;;;36.00;38.30;;;;;;5016132;28;20219;-73
2022/08/06 08:39:55;;;;;;;2.43;1.50;;;36.20;39.30;;;;;;5015996;28;20407;-73
2022/08/06 08:42:33;;;;;;;4.60;1.50;;;36.60;38.20;;;;;;5014801;28;20247;-73
2022/08/06 08:45:00;;;;;;;2.07;1.37;;;36.70;38.30;;;;;;5015731;28;20175;-73
2022/08/06 08:47:28;;;;;;;2.60;1.40;;;36.90;36.80;;;;;;5015872;28;20522;-73
2022/08/06 08:49:57;;;;;;;2.47;1.30;;;37.10;36.10;;;;;;5015827;28;20454;-73
2022/08/06 08:52:31;;;;;;;1.50;1.37;;;37.60;36.80;;;;;;5015635;28;20528;-73
2022/08/06 08:55:02;;;;;;;2.10;1.70;;;38.30;35.70;;;;;;5015685;28;20855;-73
2022/08/06 08:57:30;;;;;;;1.37;1.20;;;38.70;35.70;;;;;;5015905;28;20476;-73
2022/08/06 08:59:55;;;;;;;1.40;1.30;;;39.40;34.20;;;;;;5014781;28;21041;-73
2022/08/06 09:02:23;;;;;;;1.30;1.20;;;40.00;33.60;;;;;;5015780;28;20474;-73
2022/08/06 09:04:49;;;;;;;2.10;1.50;;;40.80;33.70;;;;;;5015550;28;20176;-73
2022/08/06 09:07:15;;;;;;;2.77;1.60;;;41.00;32.10;;;;;;5015853;28;20476;-73
2022/08/06 09:09:41;;;;;;;1.47;1.37;;;40.20;32.70;;;;;;5015586;28;20528;-73
2022/08/06 09:12:07;;;;;;;1.53;1.40;;;39.80;32.20;;;;;;5014446;28;20468;-73
2022/08/06 09:14:35;;;;;;;2.03;1.67;;;39.00;32.70;;;;;;5015305;28;20386;-73
2022/08/06 09:17:03;;;;;;;8.40;1.97;;;39.00;33.00;;;;;;5015428;28;20175;-73
2022/08/06 09:19:29;;;;;;;1.60;1.20;;;39.50;32.90;;;;;;5015515;28;20385;-73
2022/08/06 09:21:58;;;;;;;1.47;1.37;;;40.00;32.30;;;;;;5015587;28;20481;-73
2022/08/06 09:24:25;;;;;;;1.57;1.47;;;40.20;32.00;;;;;;5015095;28;20172;-73
2022/08/06 09:27:11;;;;;;;1.40;1.30;;;40.60;31.20;;;;;;5014084;28;20430;-73
2022/08/06 09:29:56;;;;;;;1.40;1.17;;;41.20;30.70;;;;;;5015437;28;20752;-73
2022/08/06 09:32:40;;;;;;;1.90;1.40;;;41.70;29.70;;;;;;5015377;28;20933;-73
2022/08/06 09:35:27;;;;;;;2.37;1.10;;;41.70;30.10;;;;;;5014977;28;20737;-73
2022/08/06 09:38:02;;;;;;;1.27;1.10;;;41.40;29.30;;;;;;5015163;28;20381;-73
2022/08/06 09:40:28;;;;;;;1.43;1.20;;;41.50;29.90;;;;;;5015442;28;20400;-73
2022/08/06 09:42:54;;;;;;;1.53;1.10;;;41.40;29.30;;;;;;5015188;28;20395;-73
2022/08/06 09:45:21;;;;;;;1.50;1.40;;;40.80;29.70;;;;;;5013954;28;20170;-73
2022/08/06 09:47:58;;;;;;;2.33;1.20;;;41.10;29.30;;;;;;5014975;28;20176;-73
2022/08/06 09:50:37;;;;;;;1.70;1.17;;;41.80;29.00;;;;;;5015149;28;20723;-73
2022/08/06 09:53:03;;;;;;;1.40;1.20;;;42.30;28.50;;;;;;5014853;28;20469;-73
2022/08/06 09:55:30;;;;;;;1.20;1.10;;;42.50;28.10;;;;;;5014497;28;20896;-73
2022/08/06 09:57:56;;;;;;;1.20;1.10;;;41.50;28.20;;;;;;5014948;28;20164;-73
2022/08/06 10:00:30;;;;;;;1.10;1.00;;;40.00;29.10;;;;;;5014931;28;20455;-73
2022/08/06 10:03:01;;;;;;;1.10;0.90;;;40.00;30.00;;;;;;5014893;28;20175;-73
2022/08/06 10:05:28;;;;;;;1.87;0.90;;;40.30;28.80;;;;;;5014623;28;20955;-73
2022/08/06 10:08:04;;;;;;;1.10;1.00;;;40.60;29.60;;;;;;5014730;28;20401;-73
2022/08/06 10:11:02;;;;;;;2.87;1.60;;;41.30;28.40;;;;;;5014542;28;20388;-73
2022/08/06 10:13:29;;;;;;;2.10;1.53;;;42.00;28.00;;;;;;5014494;28;20397;-73
2022/08/06 10:15:58;;;;;;;2.63;1.47;;;41.90;28.50;;;;;;5014080;28;20390;-73
2022/08/06 10:18:29;;;;;;;2.23;1.50;;;42.50;28.30;;;;;;5014321;28;20553;-72
2022/08/06 10:21:01;;;;;;;2.03;1.40;;;42.70;28.10;;;;;;5014056;28;20427;-72
2022/08/06 10:23:28;;;;;;;1.60;1.40;;;42.90;27.60;;;;;;5012824;28;20959;-72
2022/08/06 10:25:54;;;;;;;1.50;1.23;;;43.10;26.50;;;;;;5013391;28;20407;-72
2022/08/06 10:28:22;;;;;;;1.40;1.30;;;41.90;27.50;;;;;;5013962;28;20527;-72
2022/08/06 10:30:47;;;;;;;1.63;1.30;;;41.00;27.70;;;;;;5013773;28;20561;-71
2022/08/06 10:33:13;;;;;;;2.33;1.50;;;41.10;28.00;;;;;;5013974;28;20374;-73
2022/08/06 10:35:43;;;;;;;2.80;1.20;;;41.60;27.70;;;;;;5013886;28;20175;-73
2022/08/06 10:38:14;;;;;;;1.77;1.00;;;42.30;27.10;;;;;;5014438;28;20156;-72
2022/08/06 10:40:43;;;;;;;1.53;1.30;;;42.50;26.10;;;;;;5014063;28;20412;-73
2022/08/06 10:43:09;;;;;;;1.20;1.00;;;42.20;27.20;;;;;;5014100;28;20374;-73
2022/08/06 10:45:35;;;;;;;1.60;1.17;;;42.00;27.10;;;;;;5013719;28;20384;-74
2022/08/06 10:48:04;;;;;;;1.83;1.17;;;41.90;27.60;;;;;;5014259;28;20226;-73
2022/08/06 10:50:31;;;;;;;1.40;1.30;;;41.80;27.90;;;;;;5013323;28;20462;-73
2022/08/06 10:52:59;;;;;;;1.40;1.30;;;41.60;27.60;;;;;;5013764;28;20496;-73
2022/08/06 10:55:26;;;;;;;2.03;1.27;;;41.40;27.70;;;;;;5013154;28;20448;-72
2022/08/06 10:57:52;;;;;;;1.60;1.07;;;42.10;27.70;;;;;;5013450;28;20490;-72
2022/08/06 11:00:18;;;;;;;1.70;1.33;;;42.70;27.00;;;;;;5013284;28;20550;-72
2022/08/06 11:03:04;;;;;;;2.80;1.63;;;43.10;27.00;;;;;;5013440;28;20207;-72
2022/08/06 11:05:37;;;;;;;1.23;1.13;;;43.60;26.90;;;;;;5012986;28;20374;-72
2022/08/06 11:08:34;;;;;;;8.10;1.37;;;44.00;26.70;;;;;;5013294;28;20399;-72
2022/08/06 11:11:35;;;;;;;1.40;1.30;;;45.10;26.00;;;;;;5012037;28;20435;-72
2022/08/06 11:14:05;;;;;;;1.90;1.60;;;46.00;25.80;;;;;;5013095;28;20776;-72
2022/08/06 11:16:31;;;;;;;2.27;1.73;;;46.10;24.90;;;;;;5012928;28;20908;-72
2022/08/06 11:19:05;;;;;;;1.47;1.37;;;46.50;24.90;;;;;;5012996;28;20490;-73
2022/08/06 11:21:49;;;;;;;1.80;1.67;;;47.10;25.00;;;;;;5013004;28;20180;-72
2022/08/06 11:24:15;;;;;;;1.73;1.63;;;47.80;25.30;;;;;;5012814;28;20403;-71
2022/08/06 11:26:43;;;;;;;1.77;1.63;;;48.20;24.10;;;;;;5012944;28;20622;-72
2022/08/06 11:29:12;;;;;;;1.83;1.50;;;48.40;23.40;;;;;;5012912;28;20411;-72
2022/08/06 11:31:47;;;;;;;2.23;1.80;;;48.70;23.70;;;;;;5011491;28;20435;-72
2022/08/06 11:34:15;;;;;;;1.90;1.70;;;48.80;23.50;;;;;;5012646;28;20418;-72
2022/08/06 11:37:00;;;;;;;1.57;1.47;;;49.10;23.10;;;;;;5012741;28;20765;-72
2022/08/06 11:39:27;;;;;;;1.60;1.30;;;48.20;23.20;;;;;;5013175;28;20824;-73
2022/08/06 11:42:03;;;;;;;1.63;1.20;;;46.20;23.40;;;;;;5013154;28;20441;-72
2022/08/06 11:44:36;;;;;;;1.27;1.17;;;44.00;24.50;;;;;;5012138;28;20764;-72
2022/08/06 11:47:11;;;;;;;1.30;1.20;;;42.50;25.80;;;;;;5013194;28;20477;-73
2022/08/06 11:49:46;;;;;;;1.13;1.00;;;42.80;26.10;;;;;;5012646;28;20382;-72
2022/08/06 11:52:30;;;;;;;1.50;1.37;;;43.50;25.90;;;;;;5012377;28;20499;-72
2022/08/06 11:55:04;;;;;;;1.27;1.17;;;44.30;25.40;;;;;;5012143;28;20388;-71
2022/08/06 11:57:31;;;;;;;1.73;1.23;;;44.40;24.10;;;;;;5012781;28;20384;-73
2022/08/06 11:59:56;;;;;;;2.83;1.43;;;44.70;24.20;;;;;;5012715;28;20496;-72
2022/08/06 12:02:45;;;;;;;1.40;1.30;;;45.40;24.50;;;;;;5012359;28;20459;-72
2022/08/06 12:05:14;;;;;;;1.30;1.20;;;45.00;23.40;;;;;;5012074;28;20156;-72
2022/08/06 12:07:40;;;;;;;2.40;1.37;;;43.50;24.40;;;;;;5011854;28;20828;-71
2022/08/06 12:10:05;;;;;;;1.20;1.10;;;43.20;24.20;;;;;;5012250;28;20746;-71
2022/08/06 12:12:48;;;;;;;1.30;1.10;;;43.40;25.10;;;;;;5012199;28;20402;-71
2022/08/06 12:15:19;;;;;;;4.27;3.13;;;43.50;24.90;;;;;;5012020;28;20218;-71
2022/08/06 12:17:53;;;;;;;1.40;1.10;;;43.90;24.40;;;;;;5012190;28;20382;-71
2022/08/06 12:20:52;;;;;;;1.20;1.10;;;42.90;24.60;;;;;;5012036;28;20425;-72
2022/08/06 12:23:22;;;;;;;1.00;0.90;;;41.00;25.50;;;;;;5013241;28;20390;-72
2022/08/06 12:25:53;;;;;;;1.10;0.90;;;41.00;26.30;;;;;;5014747;28;20392;-72
2022/08/06 12:28:20;;;;;;;1.20;1.10;;;41.60;26.50;;;;;;5014937;28;20870;-72
2022/08/06 12:30:51;;;;;;;2.17;1.33;;;42.10;26.60;;;;;;5012081;28;20481;-72
2022/08/06 12:33:19;;;;;;;1.30;1.10;;;42.90;25.70;;;;;;5012167;28;20423;-71
2022/08/06 12:35:52;;;;;;;2.10;1.90;;;44.00;26.00;;;;;;5010402;28;20405;-71
2022/08/06 12:38:21;;;;;;;1.33;1.23;;;45.20;25.60;;;;;;5012003;28;20381;-71
2022/08/06 12:40:58;;;;;;;1.50;1.20;;;44.60;24.10;;;;;;5012011;28;20408;-71
2022/08/06 12:43:25;;;;;;;1.00;0.90;;;44.30;24.90;;;;;;5011923;28;20397;-72
2022/08/06 12:45:59;;;;;;;1.00;0.90;;;42.90;24.00;;;;;;5011782;28;20421;-71
2022/08/06 12:48:24;;;;;;;1.27;1.00;;;41.70;24.90;;;;;;5011983;28;20431;-71
2022/08/06 12:51:00;;;;;;;1.63;1.20;;;40.60;26.40;;;;;;5010391;28;20484;-72
2022/08/06 12:53:25;;;;;;;1.50;1.00;;;40.90;26.00;;;;;;5012098;28;20164;-72
2022/08/06 12:55:53;;;;;;;1.20;1.07;;;41.40;24.80;;;;;;5012327;28;20577;-72
2022/08/06 12:58:29;;;;;;;1.60;1.20;;;41.60;24.80;;;;;;5011851;28;20172;-72
2022/08/06 13:00:57;;;;;;;1.00;0.90;;;42.40;25.50;;;;;;5011785;28;20397;-71
2022/08/06 13:03:25;;;;;;;1.37;1.27;;;43.10;24.80;;;;;;5011669;28;20765;-72
2022/08/06 13:05:52;;;;;;;1.70;1.23;;;43.60;24.90;;;;;;5011594;28;20428;-72
2022/08/06 13:08:20;;;;;;;1.57;1.30;;;43.90;24.30;;;;;;5011743;28;20394;-72